createdAt,value
2022-12-13T00:01:57.579Z,4.77
2022-12-13T00:04:25.256Z,5.30
2022-12-13T00:06:55.170Z,3.97
2022-12-13T00:09:22.634Z,4.33
2022-12-13T00:11:50.488Z,6.23
2022-12-13T00:14:17.468Z,4.37
2022-12-13T00:16:50.875Z,4.87
2022-12-13T00:19:18.657Z,4.23
2022-12-13T00:21:45.476Z,5.10
2022-12-13T00:24:15.644Z,3.00
2022-12-13T00:26:42.571Z,4.07
2022-12-13T00:31:59.294Z,5.13
2022-12-13T00:34:27.535Z,4.23
2022-12-13T00:36:55.336Z,5.03
2022-12-13T00:39:22.476Z,4.50
2022-12-13T00:41:49.322Z,4.57
2022-12-13T00:44:18.690Z,4.17
2022-12-13T00:46:53.257Z,3.83
2022-12-13T00:49:23.725Z,6.40
2022-12-13T00:51:50.478Z,3.77
2022-12-13T00:54:26.592Z,4.13
2022-12-13T00:56:53.323Z,4.20
2022-12-13T00:59:20.223Z,3.57
2022-12-13T01:01:47.346Z,2.47
2022-12-13T01:04:17.174Z,2.87
2022-12-13T01:06:46.073Z,2.57
2022-12-13T01:09:19.337Z,2.63
2022-12-13T01:11:47.009Z,4.07
2022-12-13T01:14:14.114Z,3.87
2022-12-13T01:16:44.305Z,4.20
2022-12-13T01:19:11.096Z,3.33
2022-12-13T01:21:37.875Z,2.87
2022-12-13T01:24:08.434Z,4.00
2022-12-13T01:26:35.397Z,3.27
2022-12-13T01:29:04.859Z,2.93
2022-12-13T01:31:32.311Z,3.70
2022-12-13T01:34:10.402Z,2.87
2022-12-13T01:36:38.438Z,2.70
2022-12-13T01:39:14.868Z,2.90
2022-12-13T01:41:46.628Z,2.13
2022-12-13T01:44:54.137Z,4.50
2022-12-13T01:47:29.720Z,3.50
2022-12-13T01:50:02.239Z,2.43
2022-12-13T01:52:31.633Z,2.40
2022-12-13T01:55:03.200Z,2.93
2022-12-13T01:57:45.593Z,2.67
2022-12-13T02:00:16.666Z,3.60
2022-12-13T02:02:47.061Z,4.27
2022-12-13T02:05:34.780Z,3.00
2022-12-13T02:08:02.524Z,4.17
2022-12-13T02:10:31.050Z,4.10
2022-12-13T02:12:59.125Z,2.40
2022-12-13T02:15:33.923Z,3.07
2022-12-13T02:18:23.144Z,2.07
2022-12-13T02:21:04.436Z,2.30
2022-12-13T02:23:37.136Z,2.57
2022-12-13T02:26:38.504Z,3.00
2022-12-13T02:29:31.071Z,1.93
2022-12-13T02:32:13.308Z,2.30
2022-12-13T02:34:47.183Z,2.80
2022-12-13T02:37:29.743Z,2.23
2022-12-13T02:40:14.262Z,2.03
2022-12-13T02:43:01.647Z,2.63
2022-12-13T02:45:46.728Z,1.83
2022-12-13T02:48:17.332Z,2.40
2022-12-13T02:50:45.219Z,2.00
2022-12-13T02:53:14.020Z,2.60
2022-12-13T02:55:43.835Z,3.47
2022-12-13T02:58:26.319Z,1.97
2022-12-13T03:01:28.106Z,3.13
2022-12-13T03:04:06.451Z,2.63
2022-12-13T03:07:03.647Z,2.73
2022-12-13T03:09:56.939Z,2.93
2022-12-13T03:13:08.998Z,3.83
2022-12-13T03:15:52.047Z,1.80
2022-12-13T03:18:22.417Z,1.70
2022-12-13T03:20:58.416Z,1.63
2022-12-13T03:23:29.280Z,2.67
2022-12-13T03:26:01.013Z,1.67
2022-12-13T03:28:27.890Z,2.17
2022-12-13T03:30:57.837Z,1.50
2022-12-13T03:33:24.847Z,1.50
2022-12-13T03:35:51.702Z,1.73
2022-12-13T03:38:23.344Z,2.90
2022-12-13T03:40:53.997Z,2.13
2022-12-13T03:43:22.323Z,2.73
2022-12-13T03:45:50.863Z,2.73
2022-12-13T03:48:22.465Z,2.47
2022-12-13T03:50:53.776Z,3.10
2022-12-13T03:53:32.574Z,2.83
2022-12-13T03:56:07.612Z,1.70
2022-12-13T03:58:37.635Z,2.00
2022-12-13T04:01:19.058Z,2.57
2022-12-13T04:03:46.996Z,1.60
2022-12-13T04:06:22.407Z,1.50
2022-12-13T04:08:52.022Z,2.27
2022-12-13T04:11:43.132Z,2.27
2022-12-13T04:14:22.502Z,3.10
2022-12-13T04:16:51.422Z,2.47
2022-12-13T04:19:23.446Z,2.10
2022-12-13T04:21:54.387Z,1.97
2022-12-13T04:24:31.602Z,2.03
2022-12-13T04:27:02.067Z,2.13
2022-12-13T04:29:34.205Z,1.60
2022-12-13T04:32:02.364Z,1.47
2022-12-13T04:34:34.958Z,1.67
2022-12-13T04:37:03.788Z,2.80
2022-12-13T04:39:34.102Z,1.70
2022-12-13T04:42:01.438Z,1.47
2022-12-13T04:44:31.459Z,1.70
2022-12-13T04:47:02.758Z,1.67
2022-12-13T04:49:38.859Z,2.17
2022-12-13T04:52:08.296Z,1.93
2022-12-13T04:54:37.829Z,1.70
2022-12-13T04:57:10.046Z,2.07
2022-12-13T04:59:37.395Z,2.40
2022-12-13T05:02:05.357Z,2.20
2022-12-13T05:04:35.788Z,1.67
2022-12-13T05:07:05.655Z,2.53
2022-12-13T05:09:38.634Z,2.37
2022-12-13T05:12:05.467Z,2.27
2022-12-13T05:14:49.140Z,1.67
2022-12-13T05:17:16.052Z,2.57
2022-12-13T05:19:42.830Z,2.07
2022-12-13T05:22:20.836Z,2.20
2022-12-13T05:24:48.630Z,2.13
2022-12-13T05:27:23.667Z,3.47
2022-12-13T05:30:03.369Z,2.00
2022-12-13T05:32:43.895Z,2.73
2022-12-13T05:35:23.027Z,2.33
2022-12-13T05:37:54.121Z,1.77
2022-12-13T05:40:25.574Z,2.57
2022-12-13T05:43:01.293Z,2.07
2022-12-13T05:45:29.493Z,2.37
2022-12-13T05:47:58.924Z,1.87
2022-12-13T05:50:28.448Z,2.00
2022-12-13T05:52:55.115Z,1.83
2022-12-13T05:55:27.911Z,2.33
2022-12-13T06:00:41.568Z,2.10
2022-12-13T06:03:08.334Z,1.70
2022-12-13T06:05:40.453Z,2.13
2022-12-13T06:08:24.442Z,2.10
2022-12-13T06:11:11.045Z,2.37
2022-12-13T06:13:45.659Z,2.57
2022-12-13T06:16:22.250Z,2.43
2022-12-13T06:18:59.056Z,3.20
2022-12-13T06:21:41.733Z,2.20
2022-12-13T06:24:14.298Z,1.73
2022-12-13T06:26:41.294Z,2.30
2022-12-13T06:29:07.958Z,2.37
2022-12-13T06:31:37.916Z,1.87
2022-12-13T06:34:14.999Z,1.83
2022-12-13T06:36:43.028Z,2.10
2022-12-13T06:39:09.792Z,1.73
2022-12-13T06:41:46.748Z,2.03
2022-12-13T06:44:13.755Z,2.37
2022-12-13T06:46:40.772Z,1.70
2022-12-13T06:49:07.875Z,2.40
2022-12-13T06:51:35.283Z,2.10
2022-12-13T06:54:02.746Z,2.33
2022-12-13T06:56:31.055Z,2.30
2022-12-13T06:59:01.689Z,2.03
2022-12-13T07:01:36.761Z,2.50
2022-12-13T07:04:30.377Z,2.77
2022-12-13T07:07:07.219Z,2.10
2022-12-13T07:09:42.158Z,3.40
2022-12-13T07:12:09.137Z,2.93
2022-12-13T07:14:41.031Z,3.27
2022-12-13T07:17:11.377Z,3.67
2022-12-13T07:19:41.176Z,3.50
2022-12-13T07:22:10.679Z,2.27
2022-12-13T07:24:37.664Z,3.00
2022-12-13T07:27:04.459Z,3.60
2022-12-13T07:29:31.669Z,2.83
2022-12-13T07:32:01.668Z,4.40
2022-12-13T07:34:29.455Z,3.27
2022-12-13T07:36:56.184Z,3.83
2022-12-13T07:39:30.092Z,2.57
2022-12-13T07:41:59.997Z,2.47
2022-12-13T07:44:29.750Z,3.17
2022-12-13T07:46:59.628Z,2.07
2022-12-13T07:49:26.627Z,2.43
2022-12-13T07:51:53.397Z,3.13
2022-12-13T07:54:20.130Z,3.10
2022-12-13T07:56:46.960Z,3.33
2022-12-13T07:59:13.754Z,3.57
2022-12-13T08:01:40.849Z,3.40
2022-12-13T08:04:07.611Z,3.43
2022-12-13T08:06:38.501Z,2.67
2022-12-13T08:09:05.934Z,2.63
2022-12-13T08:11:33.126Z,2.93
2022-12-13T08:13:59.881Z,3.67
2022-12-13T08:16:29.331Z,3.53
2022-12-13T08:19:01.574Z,4.00
2022-12-13T08:21:58.503Z,4.10
2022-12-13T08:24:32.060Z,4.33
2022-12-13T08:27:01.540Z,6.57
2022-12-13T08:29:34.288Z,5.97
2022-12-13T08:32:12.779Z,10.13
2022-12-13T08:34:42.672Z,6.70
2022-12-13T08:37:09.827Z,8.87
2022-12-13T08:39:38.385Z,8.03
2022-12-13T08:42:15.825Z,7.33
2022-12-13T08:44:57.279Z,9.93
2022-12-13T08:47:27.202Z,9.97
2022-12-13T08:50:03.991Z,8.60
2022-12-13T08:52:39.148Z,8.37
2022-12-13T08:55:10.070Z,14.53
2022-12-13T08:57:37.450Z,12.50
2022-12-13T09:00:05.919Z,15.37
2022-12-13T09:02:37.968Z,9.27
2022-12-13T09:05:07.293Z,15.93
2022-12-13T09:07:43.602Z,8.87
2022-12-13T09:10:26.962Z,7.97
2022-12-13T09:13:01.472Z,5.03
2022-12-13T09:15:34.672Z,8.57
2022-12-13T09:18:04.297Z,5.10
2022-12-13T09:20:41.650Z,8.07
2022-12-13T09:23:13.884Z,6.90
2022-12-13T09:26:05.636Z,6.43
2022-12-13T09:28:35.150Z,7.73
2022-12-13T09:31:06.652Z,8.37
2022-12-13T09:33:41.417Z,6.77
2022-12-13T09:36:13.311Z,10.03
2022-12-13T09:38:40.080Z,10.40
2022-12-13T09:41:20.416Z,9.17
2022-12-13T09:44:07.200Z,12.47
2022-12-13T09:46:55.479Z,6.87
2022-12-13T09:49:40.940Z,8.43
2022-12-13T09:52:21.460Z,5.37
2022-12-13T09:54:53.724Z,8.20
2022-12-13T09:57:30.823Z,7.40
2022-12-13T10:00:08.344Z,7.27
2022-12-13T10:02:43.137Z,6.00
2022-12-13T10:05:35.702Z,7.87
2022-12-13T10:08:24.201Z,10.43
2022-12-13T10:10:53.180Z,9.37
2022-12-13T10:13:41.978Z,8.43
2022-12-13T10:16:36.253Z,6.60
2022-12-13T10:19:28.354Z,8.27
2022-12-13T10:22:02.185Z,8.70
2022-12-13T10:25:00.325Z,7.57
2022-12-13T10:27:40.855Z,8.17
2022-12-13T10:30:20.583Z,9.43
2022-12-13T10:33:07.283Z,8.97
2022-12-13T10:35:38.595Z,7.93
2022-12-13T10:38:17.830Z,6.93
2022-12-13T10:40:49.193Z,8.37
2022-12-13T10:43:22.068Z,6.10
2022-12-13T10:46:01.254Z,7.67
2022-12-13T10:48:53.186Z,6.93
2022-12-13T10:51:21.847Z,6.87
2022-12-13T10:54:00.648Z,8.53
2022-12-13T10:56:39.336Z,7.47
2022-12-13T10:59:18.457Z,6.77
2022-12-13T11:01:45.388Z,6.43
2022-12-13T11:04:28.495Z,5.87
2022-12-13T11:06:57.263Z,7.10
2022-12-13T11:09:39.194Z,6.33
2022-12-13T11:12:16.331Z,8.63
2022-12-13T11:15:06.772Z,5.00
2022-12-13T11:17:41.697Z,6.27
2022-12-13T11:20:19.804Z,5.70
2022-12-13T11:22:49.472Z,6.10
2022-12-13T11:25:26.829Z,7.67
2022-12-13T11:28:26.670Z,8.83
2022-12-13T11:31:16.096Z,7.07
2022-12-13T11:34:08.208Z,5.70
2022-12-13T11:37:10.525Z,6.33
2022-12-13T11:39:41.641Z,4.63
2022-12-13T11:42:28.804Z,4.07
2022-12-13T11:45:22.348Z,4.33
2022-12-13T11:48:07.770Z,4.80
2022-12-13T11:50:43.162Z,5.30
2022-12-13T11:53:19.067Z,3.93
2022-12-13T11:55:58.081Z,4.40
2022-12-13T11:59:02.924Z,3.80
2022-12-13T12:02:17.104Z,4.57
2022-12-13T12:05:00.019Z,3.67
2022-12-13T12:08:20.949Z,4.70
2022-12-13T12:11:17.193Z,4.30
2022-12-13T12:14:00.506Z,4.07
2022-12-13T12:16:42.141Z,3.27
2022-12-13T12:19:18.200Z,5.97
2022-12-13T12:22:17.479Z,3.07
2022-12-13T12:25:02.389Z,3.83
2022-12-13T12:27:36.743Z,3.47
2022-12-13T12:30:07.626Z,4.07
2022-12-13T12:32:54.347Z,3.83
2022-12-13T12:35:46.627Z,3.43
2022-12-13T12:38:35.696Z,3.63
2022-12-13T12:41:28.892Z,4.43
2022-12-13T12:44:40.235Z,3.70
2022-12-13T12:47:41.818Z,2.20
2022-12-13T12:50:28.915Z,3.77
2022-12-13T12:53:14.079Z,2.87
2022-12-13T12:56:03.183Z,4.60
2022-12-13T12:58:40.215Z,2.80
2022-12-13T13:01:37.711Z,2.73
2022-12-13T13:04:14.182Z,3.23
2022-12-13T13:07:22.687Z,3.33
2022-12-13T13:09:55.404Z,5.53
2022-12-13T13:12:30.471Z,3.60
2022-12-13T13:15:03.247Z,3.73
2022-12-13T13:17:29.967Z,4.73
2022-12-13T13:20:25.001Z,5.90
2022-12-13T13:23:38.984Z,4.53
2022-12-13T13:28:42.933Z,3.97
2022-12-13T13:31:10.337Z,5.23
2022-12-13T13:33:50.219Z,4.10
2022-12-13T13:36:38.870Z,3.50
2022-12-13T13:39:17.549Z,4.27
2022-12-13T13:42:15.540Z,4.83
2022-12-13T13:44:45.524Z,4.33
2022-12-13T13:47:21.122Z,4.10
2022-12-13T13:50:15.991Z,5.07
2022-12-13T13:53:09.394Z,5.20
2022-12-13T13:56:29.804Z,5.20
2022-12-13T13:59:23.108Z,4.10
2022-12-13T14:02:17.184Z,5.27
2022-12-13T14:05:36.368Z,4.10
2022-12-13T14:08:52.106Z,4.30
2022-12-13T14:11:43.548Z,3.97
2022-12-13T14:14:50.013Z,4.00
2022-12-13T14:17:44.265Z,5.03
2022-12-13T14:20:44.914Z,3.77
2022-12-13T14:23:48.296Z,4.07
2022-12-13T14:26:31.920Z,3.27
2022-12-13T14:29:10.005Z,4.37
2022-12-13T14:31:41.934Z,3.67
2022-12-13T14:34:27.136Z,3.47
2022-12-13T14:37:03.767Z,5.87
2022-12-13T14:39:34.031Z,7.90
2022-12-13T14:42:04.021Z,6.33
2022-12-13T14:44:37.290Z,6.57
2022-12-13T14:47:06.610Z,6.23
2022-12-13T14:49:41.193Z,5.93
2022-12-13T14:52:26.627Z,8.03
2022-12-13T14:55:04.377Z,7.50
2022-12-13T14:57:33.231Z,7.40
2022-12-13T15:00:20.717Z,7.03
2022-12-13T15:02:53.265Z,7.13
2022-12-13T15:05:30.129Z,7.67
2022-12-13T15:07:59.875Z,7.87
2022-12-13T15:10:37.519Z,6.70
2022-12-13T15:13:04.972Z,7.27
2022-12-13T15:15:35.641Z,8.57
2022-12-13T15:18:18.303Z,5.30
2022-12-13T15:20:45.901Z,7.93
2022-12-13T15:23:31.428Z,8.57
2022-12-13T15:26:08.089Z,6.53
2022-12-13T15:28:41.516Z,10.53
2022-12-13T15:31:09.910Z,7.40
2022-12-13T15:33:44.073Z,8.67
2022-12-13T15:36:27.492Z,10.60
2022-12-13T15:38:57.130Z,8.17
2022-12-13T15:41:29.226Z,8.87
2022-12-13T15:44:10.162Z,10.87
2022-12-13T15:46:38.237Z,8.80
2022-12-13T15:49:18.025Z,9.90
2022-12-13T15:51:57.347Z,10.97
2022-12-13T15:54:24.815Z,10.30
2022-12-13T15:57:14.972Z,10.77
2022-12-13T15:59:44.217Z,9.20
2022-12-13T16:02:16.514Z,10.67
2022-12-13T16:04:43.445Z,11.10
2022-12-13T16:07:23.227Z,10.17
2022-12-13T16:09:52.699Z,12.13
2022-12-13T16:12:47.548Z,11.53
2022-12-13T16:15:51.297Z,10.40
2022-12-13T16:18:26.879Z,10.57
2022-12-13T16:20:54.695Z,13.87
2022-12-13T16:23:27.529Z,12.30
2022-12-13T16:25:55.267Z,11.47
2022-12-13T16:28:26.251Z,11.27
2022-12-13T16:30:53.214Z,12.00
2022-12-13T16:33:30.088Z,10.30
2022-12-13T16:35:57.255Z,10.03
2022-12-13T16:38:25.814Z,14.03
2022-12-13T16:40:55.939Z,10.07
2022-12-13T16:43:32.996Z,12.03
2022-12-13T16:47:11.502Z,11.10
2022-12-13T16:48:51.447Z,9.70
2022-12-13T16:51:18.625Z,11.03
2022-12-13T16:53:45.564Z,10.40
2022-12-13T16:56:16.242Z,9.30
2022-12-13T16:58:49.585Z,8.93
2022-12-13T17:01:20.819Z,9.20
2022-12-13T17:03:48.205Z,11.67
2022-12-13T17:06:18.924Z,12.70
2022-12-13T17:08:45.666Z,13.57
2022-12-13T17:11:17.799Z,12.77
2022-12-13T17:13:46.983Z,17.27
2022-12-13T17:16:16.386Z,20.27
2022-12-13T17:18:46.637Z,26.73
2022-12-13T17:21:13.314Z,31.07
2022-12-13T17:23:40.993Z,33.57
2022-12-13T17:26:12.104Z,33.50
2022-12-13T17:28:38.961Z,36.70
2022-12-13T17:31:16.443Z,36.90
2022-12-13T17:33:44.379Z,29.67
2022-12-13T17:36:13.133Z,32.80
2022-12-13T17:38:47.685Z,33.73
2022-12-13T17:41:15.832Z,26.17
2022-12-13T17:43:43.829Z,25.37
2022-12-13T17:46:19.172Z,26.73
2022-12-13T17:48:46.365Z,22.93
2022-12-13T17:51:14.484Z,25.53
2022-12-13T17:53:42.848Z,24.07
2022-12-13T17:56:12.279Z,23.77
2022-12-13T17:58:39.217Z,22.10
2022-12-13T18:01:21.489Z,21.10
2022-12-13T18:03:56.486Z,18.70
2022-12-13T18:06:25.355Z,18.83
2022-12-13T18:08:52.115Z,23.10
2022-12-13T18:11:36.050Z,22.43
2022-12-13T18:14:05.760Z,19.93
2022-12-13T18:16:37.483Z,20.63
2022-12-13T18:19:07.903Z,16.63
2022-12-13T18:21:35.588Z,17.47
2022-12-13T18:24:02.838Z,17.00
2022-12-13T18:26:29.727Z,18.70
2022-12-13T18:28:56.436Z,15.57
2022-12-13T18:31:24.937Z,16.43
2022-12-13T18:33:54.967Z,15.57
2022-12-13T18:36:24.631Z,14.83
2022-12-13T18:38:52.228Z,11.87
2022-12-13T18:41:22.304Z,14.60
2022-12-13T18:43:55.558Z,15.07
2022-12-13T18:46:22.416Z,14.23
2022-12-13T18:48:49.300Z,11.50
2022-12-13T18:51:16.174Z,15.63
2022-12-13T18:53:43.159Z,18.03
2022-12-13T18:56:18.341Z,14.33
2022-12-13T18:58:52.778Z,13.17
2022-12-13T19:01:22.299Z,12.50
2022-12-13T19:03:49.548Z,12.10
2022-12-13T19:06:25.760Z,12.57
2022-12-13T19:08:55.658Z,9.67
2022-12-13T19:11:28.174Z,13.07
2022-12-13T19:13:55.693Z,12.83
2022-12-13T19:16:23.710Z,11.53
2022-12-13T19:18:50.494Z,12.67
2022-12-13T19:21:21.908Z,11.50
2022-12-13T19:23:57.563Z,14.23
2022-12-13T19:26:29.239Z,11.93
2022-12-13T19:28:57.914Z,14.37
2022-12-13T19:31:30.528Z,12.23
2022-12-13T19:33:59.517Z,12.77
2022-12-13T19:36:26.257Z,11.60
2022-12-13T19:38:56.715Z,11.67
2022-12-13T19:41:23.810Z,11.47
2022-12-13T19:43:52.991Z,11.40
2022-12-13T19:46:20.385Z,12.30
2022-12-13T19:48:47.995Z,9.20
2022-12-13T19:51:15.066Z,10.03
2022-12-13T19:53:50.826Z,12.40
2022-12-13T19:56:19.909Z,9.87
2022-12-13T19:58:52.705Z,8.90
2022-12-13T20:01:19.903Z,9.47
2022-12-13T20:03:49.319Z,10.60
2022-12-13T20:06:22.252Z,10.00
2022-12-13T20:08:49.811Z,9.97
2022-12-13T20:11:20.629Z,11.17
2022-12-13T20:13:48.733Z,9.93
2022-12-13T20:16:19.660Z,12.20
2022-12-13T20:18:47.198Z,7.73
2022-12-13T20:21:17.501Z,10.03
2022-12-13T20:23:49.068Z,9.20
2022-12-13T20:26:23.123Z,10.60
2022-12-13T20:28:53.319Z,12.97
2022-12-13T20:31:23.044Z,10.67
2022-12-13T20:33:57.759Z,9.90
2022-12-13T20:36:27.193Z,10.73
2022-12-13T20:38:59.865Z,11.90
2022-12-13T20:41:31.724Z,9.30
2022-12-13T20:43:59.931Z,11.43
2022-12-13T20:46:28.259Z,9.50
2022-12-13T20:48:56.273Z,10.50
2022-12-13T20:51:25.908Z,8.93
2022-12-13T20:53:54.043Z,8.93
2022-12-13T20:56:26.902Z,8.17
2022-12-13T20:59:07.660Z,10.33
2022-12-13T21:01:38.956Z,10.37
2022-12-13T21:04:07.384Z,7.83
2022-12-13T21:06:42.366Z,8.13
2022-12-13T21:09:13.254Z,7.63
2022-12-13T21:11:45.747Z,7.50
2022-12-13T21:14:23.161Z,7.83
2022-12-13T21:16:55.835Z,7.87
2022-12-13T21:19:39.946Z,8.20
2022-12-13T21:22:08.017Z,9.03
2022-12-13T21:24:34.944Z,7.87
2022-12-13T21:27:04.688Z,9.57
2022-12-13T21:29:33.705Z,8.33
2022-12-13T21:32:00.776Z,7.83
2022-12-13T21:34:27.596Z,6.47
2022-12-13T21:36:54.578Z,7.03
2022-12-13T21:39:31.203Z,8.67
2022-12-13T21:41:58.188Z,7.30
2022-12-13T21:44:27.543Z,7.70
2022-12-13T21:47:12.000Z,7.40
2022-12-13T21:49:39.574Z,6.77
2022-12-13T21:52:06.331Z,6.93
2022-12-13T21:54:36.369Z,6.90
2022-12-13T21:57:24.655Z,6.90
2022-12-13T21:59:54.663Z,5.73
2022-12-13T22:02:21.475Z,8.70
2022-12-13T22:04:49.755Z,5.67
2022-12-13T22:07:20.153Z,7.27
2022-12-13T22:09:50.660Z,6.20
2022-12-13T22:12:39.047Z,7.43
2022-12-13T22:15:12.227Z,7.80
2022-12-13T22:17:40.010Z,6.27
2022-12-13T22:20:12.469Z,6.00
2022-12-13T22:22:44.421Z,5.50
2022-12-13T22:25:11.445Z,6.10
2022-12-13T22:27:41.319Z,7.13
2022-12-13T22:30:11.579Z,6.10
2022-12-13T22:32:38.509Z,6.37
2022-12-13T22:35:13.017Z,7.13
2022-12-13T22:37:43.026Z,6.23
2022-12-13T22:40:10.874Z,7.67
2022-12-13T22:42:37.863Z,6.40
2022-12-13T22:45:05.959Z,7.93
2022-12-13T22:47:35.942Z,7.73
2022-12-13T22:50:08.821Z,7.70
2022-12-13T22:52:35.794Z,5.07
2022-12-13T22:55:05.667Z,7.10
2022-12-13T22:57:32.631Z,7.57
2022-12-13T22:59:59.307Z,6.77
2022-12-13T23:02:26.401Z,6.83
2022-12-13T23:04:53.412Z,5.70
2022-12-13T23:07:22.282Z,7.77
2022-12-13T23:09:48.984Z,7.10
2022-12-13T23:12:34.249Z,7.33
2022-12-13T23:15:01.238Z,8.47
2022-12-13T23:17:28.189Z,4.33
2022-12-13T23:19:54.953Z,8.73
2022-12-13T23:22:24.515Z,6.27
2022-12-13T23:24:54.881Z,7.17
2022-12-13T23:27:25.273Z,7.73
2022-12-13T23:29:52.160Z,7.67
2022-12-13T23:32:19.329Z,5.40
2022-12-13T23:34:46.065Z,4.97
2022-12-13T23:37:15.511Z,6.73
2022-12-13T23:39:45.504Z,7.17
2022-12-13T23:42:12.235Z,4.80
2022-12-13T23:44:39.175Z,5.73
2022-12-13T23:47:06.186Z,5.97
2022-12-13T23:49:33.119Z,5.83
2022-12-13T23:52:06.397Z,6.60
2022-12-13T23:54:33.179Z,6.93
2022-12-13T23:57:00.143Z,4.97
2022-12-13T23:59:28.037Z,4.60
